Time;durP1;ratioP1;P1;durP2;ratioP2;P2;SDS_P1;SDS_P2;PMS_P1;PMS_P2;Temp;Humidity;BMP_temperature;BMP_pressure;BME280_temperature;BME280_humidity;BME280_pressure;Samples;Min_cycle;Max_cycle;Signal;HPM_P1;HPM_P2
2024/01/04 00:01:52;;;;;;;5.53;3.30;;;;;;;9.24;53.85;94276.91;5046551;28;20028;-76
2024/01/04 00:04:18;;;;;;;6.57;4.32;;;;;;;9.14;54.01;94278.03;5047787;28;20060;-75
2024/01/04 00:06:44;;;;;;;7.80;4.65;;;;;;;9.08;54.25;94273.56;5046505;28;20025;-75
2024/01/04 00:09:13;;;;;;;6.88;3.40;;;;;;;8.99;54.58;94276.97;5047269;28;20036;-74
2024/01/04 00:11:38;;;;;;;6.38;3.75;;;;;;;8.93;54.78;94279.50;5046992;28;20021;-76
2024/01/04 00:14:05;;;;;;;6.00;3.25;;;;;;;8.88;54.74;94277.31;5045729;28;20021;-76
2024/01/04 00:16:33;;;;;;;5.97;3.40;;;;;;;8.77;55.10;94265.94;5047023;28;20052;-75
2024/01/04 00:18:58;;;;;;;5.10;3.63;;;;;;;8.73;55.12;94260.59;5046238;28;20536;-75
2024/01/04 00:21:23;;;;;;;6.20;3.53;;;;;;;8.64;55.40;94260.47;5047539;28;20163;-76
2024/01/04 00:23:49;;;;;;;5.28;2.85;;;;;;;8.57;55.78;94257.97;5046144;28;20427;-75
2024/01/04 00:26:14;;;;;;;3.72;1.85;;;;;;;8.55;55.74;94252.19;5047078;28;20025;-74
2024/01/04 00:28:40;;;;;;;2.03;1.17;;;;;;;8.57;55.77;94265.44;5046597;28;20023;-75
2024/01/04 00:31:05;;;;;;;2.92;1.42;;;;;;;8.57;56.05;94260.72;5046570;28;20106;-77
2024/01/04 00:33:30;;;;;;;2.50;1.55;;;;;;;8.62;55.56;94256.66;5046776;28;20033;-75
2024/01/04 00:35:56;;;;;;;4.07;1.50;;;;;;;8.68;55.36;94255.66;5046475;28;20044;-75
2024/01/04 00:38:21;;;;;;;4.13;1.55;;;;;;;8.77;55.04;94255.75;5047011;28;20075;-77
2024/01/04 00:40:47;;;;;;;2.10;1.10;;;;;;;8.78;55.06;94259.28;5045776;28;20033;-76
2024/01/04 00:43:12;;;;;;;3.72;1.30;;;;;;;8.80;55.01;94264.31;5047069;28;20624;-75
2024/01/04 00:45:38;;;;;;;16.30;8.55;;;;;;;8.84;54.98;94267.69;5046212;28;20482;-74
2024/01/04 00:48:03;;;;;;;8.27;4.25;;;;;;;8.88;54.69;94265.59;5046471;28;20021;-74
2024/01/04 00:50:29;;;;;;;3.47;2.00;;;;;;;8.89;54.81;94265.16;5046416;28;20029;-76
2024/01/04 00:52:54;;;;;;;1.80;1.10;;;;;;;8.90;54.73;94263.94;5046276;28;20017;-75
2024/01/04 00:55:19;;;;;;;1.95;1.15;;;;;;;8.88;54.79;94265.59;5046713;28;20104;-75
2024/01/04 00:57:45;;;;;;;1.83;1.10;;;;;;;8.91;54.75;94278.41;5045704;28;20033;-76
2024/01/04 01:00:11;;;;;;;4.55;2.40;;;;;;;8.91;54.59;94272.94;5046929;28;20079;-75
2024/01/04 01:02:36;;;;;;;10.40;4.97;;;;;;;8.89;54.38;94278.06;5045998;28;20056;-75
2024/01/04 01:05:01;;;;;;;9.95;5.70;;;;;;;8.87;54.59;94277.75;5045124;28;20112;-75
2024/01/04 01:07:27;;;;;;;10.57;6.55;;;;;;;8.79;55.26;94277.25;5046336;28;20025;-74
2024/01/04 01:09:52;;;;;;;14.75;7.47;;;;;;;8.60;55.88;94272.75;5046274;28;20033;-74
2024/01/04 01:12:18;;;;;;;11.70;6.47;;;;;;;8.49;56.08;94262.91;5046513;28;20028;-74
2024/01/04 01:14:43;;;;;;;10.75;6.93;;;;;;;8.40;56.52;94268.28;5046054;28;20033;-74
2024/01/04 01:17:09;;;;;;;9.52;5.85;;;;;;;8.25;56.87;94265.16;5046412;28;20032;-74
2024/01/04 01:19:34;;;;;;;14.95;8.27;;;;;;;8.21;57.09;94270.00;5045874;28;20018;-75
2024/01/04 01:21:59;;;;;;;10.60;6.53;;;;;;;8.18;57.12;94278.31;5046543;28;20117;-74
2024/01/04 01:24:25;;;;;;;8.48;5.38;;;;;;;8.13;57.40;94268.66;5045880;28;20025;-75
2024/01/04 01:26:50;;;;;;;10.30;5.10;;;;;;;8.06;57.67;94260.69;5046353;28;20020;-76
2024/01/04 01:29:16;;;;;;;7.93;4.82;;;;;;;8.03;57.81;94261.56;5046417;28;20112;-75
2024/01/04 01:31:44;;;;;;;10.52;6.15;;;;;;;7.96;58.22;94269.97;5046072;28;20375;-75
2024/01/04 01:34:09;;;;;;;8.40;5.55;;;;;;;7.92;58.64;94269.31;5046315;28;20407;-75
2024/01/04 01:36:36;;;;;;;11.07;5.95;;;;;;;7.90;58.83;94277.19;5045613;28;20021;-74
2024/01/04 01:39:02;;;;;;;11.85;6.50;;;;;;;7.80;59.22;94275.50;5044756;28;20473;-74
2024/01/04 01:41:27;;;;;;;10.43;6.65;;;;;;;7.73;59.88;94277.25;5045673;28;20108;-75
2024/01/04 01:43:52;;;;;;;11.75;7.28;;;;;;;7.62;60.45;94281.50;5046306;28;20407;-74
2024/01/04 01:46:18;;;;;;;10.32;6.80;;;;;;;7.61;60.70;94280.72;5046174;28;20546;-74
2024/01/04 01:48:43;;;;;;;12.77;7.40;;;;;;;7.61;60.90;94290.91;5046010;28;20032;-76
2024/01/04 01:51:10;;;;;;;14.48;9.13;;;;;;;7.61;61.19;94288.16;5044580;28;20070;-75
2024/01/04 01:53:35;;;;;;;14.30;8.65;;;;;;;7.52;61.25;94288.03;5046883;28;20028;-75
2024/01/04 01:56:01;;;;;;;15.88;8.90;;;;;;;7.50;61.48;94296.66;5048308;28;20387;-75
2024/01/04 01:58:27;;;;;;;14.95;8.63;;;;;;;7.38;61.87;94287.22;5047548;28;20067;-75
2024/01/04 02:00:52;;;;;;;15.60;9.93;;;;;;;7.36;62.15;94284.16;5048560;28;20025;-75
2024/01/04 02:03:18;;;;;;;14.55;8.73;;;;;;;7.34;61.84;94285.78;5047749;28;20028;-74
2024/01/04 02:05:43;;;;;;;12.98;9.02;;;;;;;7.31;62.27;94292.13;5048259;28;20036;-74
2024/01/04 02:08:09;;;;;;;13.60;9.13;;;;;;;7.33;62.06;94301.41;5048961;28;20021;-74
2024/01/04 02:10:34;;;;;;;12.15;8.63;;;;;;;7.31;62.12;94283.91;5049177;28;20104;-74
2024/01/04 02:12:59;;;;;;;14.40;8.82;;;;;;;7.32;61.81;94293.66;5049456;28;20025;-74
2024/01/04 02:15:25;;;;;;;13.20;9.15;;;;;;;7.23;62.15;94282.56;5048473;28;20044;-75
2024/01/04 02:17:50;;;;;;;12.98;8.52;;;;;;;7.33;61.68;94276.03;5049103;28;20059;-75
2024/01/04 02:20:16;;;;;;;11.60;8.52;;;;;;;7.22;62.06;94279.03;5047122;28;20037;-75
2024/01/04 02:22:45;;;;;;;11.68;8.15;;;;;;;7.18;62.26;94281.91;5049352;28;20031;-74
2024/01/04 02:25:10;;;;;;;16.33;8.60;;;;;;;7.24;61.93;94278.63;5048586;28;20479;-75
2024/01/04 02:27:36;;;;;;;13.90;8.90;;;;;;;7.24;62.04;94287.59;5048875;28;20162;-75
2024/01/04 02:30:01;;;;;;;11.07;8.23;;;;;;;7.23;62.08;94290.78;5048761;28;20111;-74
2024/01/04 02:32:27;;;;;;;13.32;8.75;;;;;;;7.22;62.22;94270.09;5048795;28;20025;-74
2024/01/04 02:34:52;;;;;;;13.73;8.52;;;;;;;7.23;62.06;94257.97;5048919;28;20025;-74
2024/01/04 02:37:17;;;;;;;11.23;7.57;;;;;;;7.21;61.99;94249.41;5046797;28;20025;-75
2024/01/04 02:39:43;;;;;;;11.57;7.22;;;;;;;7.26;61.84;94241.47;5049193;28;20159;-74
2024/01/04 02:42:08;;;;;;;10.00;7.20;;;;;;;7.25;61.57;94239.94;5048092;28;20409;-74
2024/01/04 02:44:33;;;;;;;13.65;7.32;;;;;;;7.19;61.93;94242.41;5048993;28;20151;-75
2024/01/04 02:46:59;;;;;;;8.82;6.60;;;;;;;7.17;61.70;94244.06;5048541;28;20056;-74
2024/01/04 02:49:24;;;;;;;12.85;6.07;;;;;;;7.17;61.76;94244.81;5046724;28;20024;-76
2024/01/04 02:51:50;;;;;;;8.52;5.18;;;;;;;7.15;61.93;94239.00;5048569;28;20092;-75
2024/01/04 02:54:15;;;;;;;9.40;5.70;;;;;;;7.07;62.00;94232.22;5046879;28;20021;-75
2024/01/04 02:56:40;;;;;;;6.97;4.70;;;;;;;7.07;62.34;94243.13;5048750;28;20021;-75
2024/01/04 02:59:07;;;;;;;8.52;5.40;;;;;;;7.07;62.17;94245.88;5047838;28;20112;-75
2024/01/04 03:01:33;;;;;;;7.40;5.03;;;;;;;7.08;62.14;94252.09;5048443;28;20033;-75
2024/01/04 03:03:58;;;;;;;10.48;5.68;;;;;;;7.08;62.40;94246.63;5045971;28;20178;-74
2024/01/04 03:06:24;;;;;;;8.95;5.57;;;;;;;7.08;62.45;94241.16;5046768;28;20100;-75
2024/01/04 03:08:50;;;;;;;9.43;6.00;;;;;;;7.07;62.32;94240.41;5046436;28;20021;-75
2024/01/04 03:11:16;;;;;;;10.35;6.88;;;;;;;7.06;62.33;94233.41;5047809;28;20467;-75
2024/01/04 03:13:41;;;;;;;13.48;6.97;;;;;;;7.08;62.44;94222.81;5048486;28;20021;-74
2024/01/04 03:16:06;;;;;;;10.63;6.90;;;;;;;7.10;62.34;94233.28;5047038;28;20114;-74
2024/01/04 03:18:32;;;;;;;11.45;6.78;;;;;;;7.02;62.30;94224.53;5048026;28;20041;-76
2024/01/04 03:20:57;;;;;;;9.93;5.85;;;;;;;6.99;62.74;94221.88;5047244;28;20025;-75
2024/01/04 03:23:22;;;;;;;9.98;6.40;;;;;;;7.01;62.69;94239.41;5047980;28;20048;-75
2024/01/04 03:25:48;;;;;;;8.77;6.15;;;;;;;7.03;62.52;94222.56;5048017;28;20028;-75
2024/01/04 03:28:13;;;;;;;10.50;6.43;;;;;;;7.01;62.56;94212.06;5047209;28;20029;-76
2024/01/04 03:30:39;;;;;;;8.75;5.90;;;;;;;7.03;62.62;94217.84;5048013;28;20033;-75
2024/01/04 03:33:04;;;;;;;10.98;6.25;;;;;;;7.03;62.66;94208.91;5047006;28;20100;-75
2024/01/04 03:35:30;;;;;;;10.82;5.82;;;;;;;7.03;62.71;94209.66;5047859;28;20162;-75
2024/01/04 03:37:55;;;;;;;8.23;5.68;;;;;;;7.06;62.60;94210.78;5046668;28;20356;-75
2024/01/04 03:40:20;;;;;;;11.27;6.68;;;;;;;7.07;62.58;94204.88;5047864;28;20025;-75
2024/01/04 03:42:46;;;;;;;11.05;6.47;;;;;;;7.03;62.50;94187.78;5047466;28;20020;-75
2024/01/04 03:45:11;;;;;;;8.98;6.75;;;;;;;7.11;62.40;94199.28;5045832;28;20120;-75
2024/01/04 03:47:37;;;;;;;9.93;6.70;;;;;;;7.07;62.68;94190.44;5047417;28;20506;-75
2024/01/04 03:50:05;;;;;;;13.93;6.95;;;;;;;7.01;62.57;94181.25;5046816;28;20039;-75
2024/01/04 03:52:30;;;;;;;10.07;6.70;;;;;;;7.03;62.90;94189.75;5047855;28;20510;-75
2024/01/04 03:54:56;;;;;;;12.57;7.70;;;;;;;7.01;63.01;94189.44;5046565;28;20025;-77
2024/01/04 03:57:21;;;;;;;10.18;6.78;;;;;;;7.00;62.85;94205.06;5047445;28;20032;-75
2024/01/04 03:59:46;;;;;;;11.07;7.10;;;;;;;6.96;62.86;94203.63;5046944;28;20074;-76
2024/01/04 04:02:12;;;;;;;11.00;7.68;;;;;;;6.93;62.98;94206.00;5047440;28;20028;-74
2024/01/04 04:04:38;;;;;;;14.93;8.30;;;;;;;6.83;63.07;94201.59;5047122;28;20056;-74
2024/01/04 04:07:03;;;;;;;14.60;8.60;;;;;;;6.78;63.39;94209.56;5046675;28;20408;-75
2024/01/04 04:09:28;;;;;;;11.07;7.75;;;;;;;6.76;63.53;94209.97;5047337;28;20500;-75
2024/01/04 04:11:54;;;;;;;11.27;7.22;;;;;;;6.68;63.84;94196.94;5046632;28;20036;-75
2024/01/04 04:14:20;;;;;;;10.40;6.53;;;;;;;6.62;64.17;94207.63;5047507;28;20463;-74
2024/01/04 04:16:45;;;;;;;12.82;7.53;;;;;;;6.58;64.13;94204.19;5044537;28;20500;-74
2024/01/04 04:19:11;;;;;;;12.50;7.13;;;;;;;6.59;64.08;94200.25;5045543;28;20029;-75
2024/01/04 04:21:36;;;;;;;12.07;7.75;;;;;;;6.61;64.09;94206.84;5045388;28;20483;-75
2024/01/04 04:24:02;;;;;;;10.43;7.75;;;;;;;6.58;64.17;94202.22;5046483;28;20063;-75
2024/01/04 04:26:27;;;;;;;9.43;6.60;;;;;;;6.60;64.10;94194.41;5046799;28;20025;-75
2024/01/04 04:28:53;;;;;;;10.63;7.07;;;;;;;6.68;63.79;94197.69;5046219;28;20112;-74
2024/01/04 04:31:19;;;;;;;10.32;7.63;;;;;;;6.51;64.12;94185.25;5047651;28;20104;-75
2024/01/04 04:33:46;;;;;;;10.70;7.43;;;;;;;6.44;64.58;94190.91;5046304;28;20025;-75
2024/01/04 04:36:11;;;;;;;13.50;8.35;;;;;;;6.40;64.55;94193.72;5045416;28;20029;-76
2024/01/04 04:38:37;;;;;;;12.32;7.25;;;;;;;6.39;64.70;94197.66;5046544;28;20032;-75
2024/01/04 04:41:04;;;;;;;10.10;7.25;;;;;;;6.39;64.75;94198.41;5046637;28;20033;-74
2024/01/04 04:43:30;;;;;;;11.00;7.05;;;;;;;6.32;64.81;94193.13;5046794;28;20091;-75
2024/01/04 04:45:56;;;;;;;11.63;7.10;;;;;;;6.31;64.91;94205.25;5044970;28;20037;-75
2024/01/04 04:48:22;;;;;;;8.18;6.18;;;;;;;6.33;64.94;94210.28;5045456;28;20610;-76
2024/01/04 04:50:48;;;;;;;15.35;6.95;;;;;;;6.34;64.82;94207.13;5044772;28;20032;-75
2024/01/04 04:53:13;;;;;;;9.57;6.10;;;;;;;6.32;64.77;94204.06;5045483;28;20028;-75
2024/01/04 04:55:39;;;;;;;12.02;7.13;;;;;;;6.32;64.92;94208.75;5046319;28;20540;-75
2024/01/04 04:58:04;;;;;;;10.10;7.18;;;;;;;6.33;65.03;94215.75;5046567;28;20135;-75
2024/01/04 05:00:29;;;;;;;8.20;5.97;;;;;;;6.32;65.16;94201.31;5046792;28;20021;-73
2024/01/04 05:02:55;;;;;;;9.82;6.25;;;;;;;6.29;65.04;94199.44;5044651;28;20499;-75
2024/01/04 05:05:20;;;;;;;11.30;7.15;;;;;;;6.26;64.92;94211.22;5046659;28;20104;-75
2024/01/04 05:07:46;;;;;;;12.50;6.72;;;;;;;6.29;64.96;94217.78;5046347;28;20021;-76
2024/01/04 05:10:11;;;;;;;9.73;7.15;;;;;;;6.28;64.86;94213.50;5046601;28;20436;-75
2024/01/04 05:12:37;;;;;;;12.55;7.80;;;;;;;6.26;65.00;94229.56;5045851;28;20035;-74
2024/01/04 05:15:02;;;;;;;10.93;6.07;;;;;;;6.29;64.90;94229.47;5046298;28;20049;-76
2024/01/04 05:17:28;;;;;;;10.07;6.57;;;;;;;6.25;64.91;94231.53;5046100;28;20372;-76
2024/01/04 05:19:53;;;;;;;10.73;6.50;;;;;;;6.30;64.75;94225.53;5046125;28;20668;-76
2024/01/04 05:22:19;;;;;;;8.50;6.20;;;;;;;6.26;64.86;94218.66;5046037;28;20120;-75
2024/01/04 05:24:44;;;;;;;10.13;6.82;;;;;;;6.26;65.12;94221.38;5044652;28;20021;-74
2024/01/04 05:27:10;;;;;;;11.82;7.00;;;;;;;6.21;65.18;94216.41;5047879;28;20113;-75
2024/01/04 05:29:35;;;;;;;13.30;7.30;;;;;;;6.24;65.10;94221.78;5049548;28;20147;-75
2024/01/04 05:32:02;;;;;;;11.63;6.75;;;;;;;6.27;64.74;94218.22;5050455;28;20323;-76
2024/01/04 05:34:29;;;;;;;13.07;6.32;;;;;;;6.20;64.94;94225.81;5049815;28;20063;-76
2024/01/04 05:36:54;;;;;;;8.80;6.15;;;;;;;6.22;65.03;94217.94;5048808;28;20021;-75
2024/01/04 05:39:20;;;;;;;9.32;6.60;;;;;;;6.15;65.00;94213.44;5049499;28;20407;-74
2024/01/04 05:41:45;;;;;;;9.57;6.55;;;;;;;6.17;65.15;94226.66;5050055;28;20048;-75
2024/01/04 05:44:11;;;;;;;10.02;7.05;;;;;;;6.15;65.25;94218.88;5049823;28;20078;-75
2024/01/04 05:46:37;;;;;;;9.43;6.32;;;;;;;6.15;65.28;94216.16;5049298;28;20036;-75
2024/01/04 05:49:02;;;;;;;11.27;6.50;;;;;;;6.19;65.21;94210.59;5049869;28;20055;-75
2024/01/04 05:51:27;;;;;;;12.70;6.88;;;;;;;6.15;65.62;94215.41;5049006;28;20029;-75
2024/01/04 05:53:53;;;;;;;10.88;7.03;;;;;;;6.13;65.39;94232.19;5048643;28;20021;-75
2024/01/04 05:56:18;;;;;;;10.63;7.85;;;;;;;6.09;65.73;94240.47;5047622;28;20025;-75
2024/01/04 05:58:43;;;;;;;9.90;5.90;;;;;;;6.05;65.92;94234.31;5049512;28;20394;-75
2024/01/04 06:01:09;;;;;;;11.18;6.15;;;;;;;6.07;65.96;94223.72;5049157;28;20033;-76
2024/01/04 06:03:34;;;;;;;11.55;7.03;;;;;;;6.11;65.94;94229.09;5049262;28;20029;-74
2024/01/04 06:06:00;;;;;;;11.20;7.78;;;;;;;6.15;65.66;94240.72;5049330;28;20040;-74
2024/01/04 06:08:25;;;;;;;14.57;9.35;;;;;;;6.17;65.52;94240.28;5048807;28;20108;-75
2024/01/04 06:10:51;;;;;;;10.82;6.78;;;;;;;6.15;65.67;94239.97;5048433;28;20025;-75
2024/01/04 06:13:18;;;;;;;9.02;6.82;;;;;;;6.17;65.72;94235.59;5047375;28;20029;-75
2024/01/04 06:15:45;;;;;;;13.38;7.47;;;;;;;6.22;65.45;94231.59;5049165;28;20432;-76
2024/01/04 06:18:11;;;;;;;9.43;6.10;;;;;;;6.17;65.41;94230.13;5048777;28;20036;-77
2024/01/04 06:20:38;;;;;;;11.02;6.68;;;;;;;6.21;65.64;94232.78;5049002;28;20028;-75
2024/01/04 06:23:03;;;;;;;13.75;8.48;;;;;;;6.22;65.25;94250.69;5049111;28;20029;-74
2024/01/04 06:25:29;;;;;;;18.73;9.63;;;;;;;6.22;65.44;94245.25;5048880;28;20079;-75
2024/01/04 06:27:54;;;;;;;16.85;10.02;;;;;;;6.24;65.25;94237.38;5049455;28;20057;-74
2024/01/04 06:30:20;;;;;;;12.50;9.52;;;;;;;6.31;65.13;94237.25;5048310;28;20052;-75
2024/01/04 06:32:45;;;;;;;16.73;9.65;;;;;;;6.36;65.19;94242.16;5049215;28;20548;-74
2024/01/04 06:35:11;;;;;;;13.75;9.23;;;;;;;6.38;65.02;94245.25;5047095;28;20021;-76
2024/01/04 06:37:37;;;;;;;9.43;6.32;;;;;;;6.45;65.03;94228.69;5048606;28;20501;-75
2024/01/04 06:40:05;;;;;;;10.35;8.20;;;;;;;6.52;64.70;94233.97;5047878;28;20029;-75
2024/01/04 06:42:31;;;;;;;19.55;9.95;;;;;;;6.57;64.60;94229.97;5048955;28;20025;-76
2024/01/04 06:44:56;;;;;;;21.60;13.13;;;;;;;6.56;64.77;94214.78;5047675;28;20036;-76
2024/01/04 06:47:21;;;;;;;22.60;12.40;;;;;;;6.67;64.34;94228.19;5047738;28;20484;-75
2024/01/04 06:49:47;;;;;;;24.45;12.70;;;;;;;6.71;64.18;94232.38;5047655;28;20032;-74
2024/01/04 06:52:12;;;;;;;18.15;10.35;;;;;;;6.76;64.41;94231.81;5047946;28;20091;-76
2024/01/04 06:54:38;;;;;;;22.35;11.02;;;;;;;6.79;64.12;94233.72;5048667;28;20035;-76
2024/01/04 06:57:06;;;;;;;21.35;10.25;;;;;;;6.84;63.95;94226.97;5046600;28;20021;-77
2024/01/04 06:59:32;;;;;;;16.08;10.35;;;;;;;6.94;63.85;94242.31;5030748;28;20063;-76
2024/01/04 07:01:57;;;;;;;16.25;9.25;;;;;;;7.02;63.80;94229.22;5048614;28;20052;-74
2024/01/04 07:04:22;;;;;;;14.63;9.02;;;;;;;7.10;63.57;94242.25;5047712;28;20087;-75
2024/01/04 07:06:48;;;;;;;18.08;9.90;;;;;;;7.12;63.52;94226.22;5048704;28;20075;-75
2024/01/04 07:09:14;;;;;;;14.88;8.43;;;;;;;7.25;63.22;94244.63;5047367;28;20029;-75
2024/01/04 07:11:39;;;;;;;15.23;8.98;;;;;;;7.29;63.16;94243.34;5047517;28;20492;-76
2024/01/04 07:14:05;;;;;;;17.05;9.07;;;;;;;7.38;62.91;94250.91;5047666;28;20102;-75
2024/01/04 07:16:30;;;;;;;13.30;7.70;;;;;;;7.44;62.65;94255.41;5047701;28;20116;-76
2024/01/04 07:18:55;;;;;;;14.05;8.32;;;;;;;7.52;62.55;94266.94;5047791;28;20348;-76
2024/01/04 07:21:21;;;;;;;12.90;8.88;;;;;;;7.57;62.64;94249.19;5044273;28;20021;-77
2024/01/04 07:23:46;;;;;;;19.38;10.43;;;;;;;7.64;62.51;94259.97;5046802;28;20032;-76
2024/01/04 07:26:11;;;;;;;20.17;12.80;;;;;;;7.71;62.38;94255.03;5047186;28;20037;-75
2024/01/04 07:28:37;;;;;;;32.47;19.10;;;;;;;7.77;62.43;94241.59;5048282;28;20506;-75
2024/01/04 07:31:02;;;;;;;27.83;17.35;;;;;;;7.80;61.96;94223.53;5047171;28;20049;-76
2024/01/04 07:33:28;;;;;;;28.92;18.98;;;;;;;7.81;61.96;94220.38;5047890;28;20028;-75
2024/01/04 07:35:53;;;;;;;24.15;13.70;;;;;;;7.82;61.74;94212.94;5047571;28;20119;-75
2024/01/04 07:38:19;;;;;;;17.30;10.27;;;;;;;7.91;61.37;94208.34;5045913;28;20560;-77
2024/01/04 07:40:44;;;;;;;17.75;11.00;;;;;;;7.93;61.54;94213.38;5046499;28;20442;-76
2024/01/04 07:43:10;;;;;;;16.30;11.63;;;;;;;8.03;61.28;94197.81;5047030;28;20021;-76
2024/01/04 07:45:36;;;;;;;12.60;7.97;;;;;;;7.95;61.00;94192.56;5047912;28;20036;-76
2024/01/04 07:48:02;;;;;;;11.10;8.27;;;;;;;8.03;60.80;94181.41;5046664;28;20104;-75
2024/01/04 07:50:27;;;;;;;16.40;9.55;;;;;;;8.09;60.90;94187.88;5047687;28;20100;-77
2024/01/04 07:52:53;;;;;;;18.27;12.32;;;;;;;8.16;60.99;94195.88;5047238;28;20107;-76
2024/01/04 07:55:20;;;;;;;21.35;14.82;;;;;;;8.21;61.13;94184.38;5047012;28;20507;-76
2024/01/04 07:57:45;;;;;;;26.10;15.95;;;;;;;8.29;60.93;94176.69;5045789;28;20032;-75
2024/01/04 08:00:11;;;;;;;25.42;15.45;;;;;;;8.36;60.81;94160.03;5045369;28;20447;-76
2024/01/04 08:02:37;;;;;;;30.58;16.38;;;;;;;8.42;60.64;94167.25;5046033;28;20373;-76
2024/01/04 08:05:02;;;;;;;26.30;15.75;;;;;;;8.59;60.10;94165.13;5046398;28;20033;-75
2024/01/04 08:07:28;;;;;;;27.60;15.63;;;;;;;8.61;59.97;94160.00;5047819;28;20079;-75
2024/01/04 08:09:53;;;;;;;22.80;14.65;;;;;;;8.69;59.55;94164.03;5046657;28;20411;-75
2024/01/04 08:12:19;;;;;;;26.98;16.17;;;;;;;8.83;59.57;94157.31;5047021;28;20107;-77
2024/01/04 08:14:44;;;;;;;32.88;18.55;;;;;;;8.95;59.31;94144.75;5046692;28;20519;-77
2024/01/04 08:17:09;;;;;;;27.95;18.17;;;;;;;9.00;58.56;94177.06;5046603;28;20055;-75
2024/01/04 08:19:36;;;;;;;41.80;26.55;;;;;;;9.11;58.40;94166.47;5046742;28;20053;-76
2024/01/04 08:22:02;;;;;;;49.70;33.47;;;;;;;9.21;58.11;94178.28;5046504;28;20024;-75
2024/01/04 08:24:28;;;;;;;57.33;38.45;;;;;;;9.38;57.56;94184.34;5047383;28;20108;-75
2024/01/04 08:26:54;;;;;;;64.13;41.58;;;;;;;9.57;57.27;94200.47;5046258;28;20028;-77
2024/01/04 08:29:19;;;;;;;58.78;39.53;;;;;;;9.73;56.76;94180.28;5028915;28;20033;-76
2024/01/04 08:31:45;;;;;;;56.40;38.92;;;;;;;9.84;56.33;94172.44;5046496;28;20051;-77
2024/01/04 08:34:10;;;;;;;56.78;36.15;;;;;;;10.33;55.36;94157.25;5046684;28;20108;-76
2024/01/04 08:36:36;;;;;;;50.03;30.67;;;;;;;10.72;54.08;94165.84;5046769;28;20519;-75
2024/01/04 08:39:03;;;;;;;43.75;28.45;;;;;;;10.94;53.02;94179.47;5044944;28;20029;-76
2024/01/04 08:41:28;;;;;;;37.10;25.60;;;;;;;11.15;52.09;94160.06;5047444;28;20040;-84
2024/01/04 08:43:56;;;;;;;38.08;24.30;;;;;;;11.68;51.18;94164.44;5044791;28;20029;-75
2024/01/04 08:46:22;;;;;;;34.03;22.60;;;;;;;12.15;49.41;94154.81;5046700;28;20122;-82
2024/01/04 08:48:47;;;;;;;32.53;21.35;;;;;;;12.66;48.34;94149.19;5028367;28;20499;-77
2024/01/04 08:51:12;;;;;;;29.77;21.50;;;;;;;13.16;46.86;94157.72;5046345;28;20049;-77
2024/01/04 08:53:38;;;;;;;28.05;20.73;;;;;;;13.81;45.47;94152.41;5046410;28;20027;-77
2024/01/04 08:56:09;;;;;;;27.20;20.17;;;;;;;14.15;44.55;94148.16;5046312;28;20064;-76
2024/01/04 08:58:35;;;;;;;28.88;20.25;;;;;;;14.99;42.83;94141.06;5046736;28;20032;-77
2024/01/04 09:01:01;;;;;;;32.05;21.30;;;;;;;15.65;41.51;94134.78;5045993;28;20036;-76
2024/01/04 09:03:26;;;;;;;31.33;20.27;;;;;;;15.89;40.97;94130.97;5050611;28;20059;-77
2024/01/04 09:05:51;;;;;;;31.17;20.65;;;;;;;15.97;40.39;94136.81;5050095;28;20052;-77
2024/01/04 09:08:17;;;;;;;28.38;20.00;;;;;;;16.28;39.72;94147.88;5050359;28;20029;-77
2024/01/04 09:10:42;;;;;;;23.23;15.50;;;;;;;16.38;39.38;94138.13;5050417;28;20032;-76
2024/01/04 09:13:08;;;;;;;26.75;17.85;;;;;;;16.16;39.53;94138.72;5050123;28;20032;-76
2024/01/04 09:15:33;;;;;;;24.40;16.15;;;;;;;16.09;39.34;94138.44;5050184;28;20052;-77
2024/01/04 09:18:00;;;;;;;26.73;17.38;;;;;;;16.27;39.25;94115.88;5048503;28;20041;-77
2024/01/04 09:20:25;;;;;;;26.30;17.75;;;;;;;16.68;38.90;94118.38;5050475;28;20021;-77
2024/01/04 09:22:50;;;;;;;24.15;16.67;;;;;;;18.30;35.86;94129.22;5050041;28;20071;-77
2024/01/04 09:25:16;;;;;;;25.05;15.68;;;;;;;19.66;33.38;94106.00;5050286;28;20092;-76
2024/01/04 09:27:41;;;;;;;26.38;15.25;;;;;;;20.68;31.69;94120.69;5049906;28;20061;-76
2024/01/04 09:30:08;;;;;;;19.02;12.73;;;;;;;21.74;29.57;94102.69;5048417;28;20025;-76
2024/01/04 09:32:34;;;;;;;20.83;13.23;;;;;;;22.19;28.63;94090.06;5049974;28;20043;-76
2024/01/04 09:34:59;;;;;;;15.82;11.65;;;;;;;22.48;27.80;94091.88;5050009;28;20037;-76
2024/01/04 09:37:25;;;;;;;16.35;11.50;;;;;;;23.07;26.94;94086.22;5049991;28;20028;-76
2024/01/04 09:39:50;;;;;;;13.77;10.25;;;;;;;24.19;25.79;94089.41;5049570;28;20456;-77
2024/01/04 09:42:16;;;;;;;19.25;11.20;;;;;;;24.81;25.26;94079.47;5050144;28;20092;-76
2024/01/04 09:44:43;;;;;;;16.63;10.98;;;;;;;24.50;25.54;94070.81;5049357;28;20029;-76
2024/01/04 09:47:09;;;;;;;17.60;12.60;;;;;;;24.25;25.35;94080.84;5048512;28;20024;-78
2024/01/04 09:49:37;;;;;;;21.00;12.88;;;;;;;24.80;25.13;94080.75;5049846;28;20056;-77
2024/01/04 09:52:03;;;;;;;16.02;11.30;;;;;;;26.09;23.63;94077.06;5049599;28;20445;-77
2024/01/04 09:54:29;;;;;;;14.30;10.52;;;;;;;26.56;22.33;94073.03;5047905;28;20021;-76
2024/01/04 09:56:54;;;;;;;12.90;9.48;;;;;;;27.32;21.94;94063.72;5049141;28;20025;-76
2024/01/04 09:59:21;;;;;;;13.38;9.38;;;;;;;27.81;21.42;94065.25;5049835;28;20055;-77
2024/01/04 10:01:47;;;;;;;11.60;7.65;;;;;;;28.16;20.49;94057.69;5049172;28;20036;-77
2024/01/04 10:04:16;;;;;;;10.80;6.32;;;;;;;27.93;20.92;94060.66;5049487;28;20013;-77
2024/01/04 10:06:45;;;;;;;11.63;6.95;;;;;;;26.14;22.59;94045.91;5051167;28;20025;-77
2024/01/04 10:09:23;;;;;;;7.75;6.18;;;;;;;26.55;22.18;94041.25;5049085;28;20086;-74
2024/01/04 10:11:57;;;;;;;9.45;6.93;;;;;;;27.28;21.15;94044.34;5049630;28;20108;-78
2024/01/04 10:14:27;;;;;;;14.00;6.43;;;;;;;28.04;21.14;94029.16;5047553;28;20104;-86
2024/01/04 10:16:53;;;;;;;12.02;5.82;;;;;;;28.43;20.26;94013.44;5050087;28;20024;-75
2024/01/04 10:19:22;;;;;;;9.57;6.05;;;;;;;28.70;19.69;94013.59;5046771;28;20033;-77
2024/01/04 10:21:48;;;;;;;9.32;6.05;;;;;;;28.49;20.00;94010.38;5049233;28;20025;-77
2024/01/04 10:24:15;;;;;;;9.18;6.55;;;;;;;28.64;19.67;93993.31;5048685;28;20035;-77
2024/01/04 10:26:44;;;;;;;10.95;7.82;;;;;;;28.92;19.67;93986.44;5049135;28;20024;-77
2024/01/04 10:29:09;;;;;;;9.75;6.53;;;;;;;29.07;19.24;94000.41;5049010;28;20025;-77
2024/01/04 10:31:35;;;;;;;10.43;7.15;;;;;;;28.98;19.69;93989.78;5048354;28;20025;-75
2024/01/04 10:34:01;;;;;;;15.70;7.15;;;;;;;29.32;19.50;93993.94;5049497;28;20456;-77
2024/01/04 10:36:32;;;;;;;9.73;5.95;;;;;;;29.69;19.37;93991.22;5048325;28;20044;-77
2024/01/04 10:38:59;;;;;;;10.02;6.93;;;;;;;29.99;19.01;93981.53;5049196;28;20029;-78
2024/01/04 10:41:28;;;;;;;8.60;5.78;;;;;;;29.43;19.37;93970.03;5048326;28;20025;-77
2024/01/04 10:44:05;;;;;;;11.63;6.18;;;;;;;29.12;19.34;93959.06;5048559;28;20500;-75
2024/01/04 10:46:36;;;;;;;10.13;5.45;;;;;;;29.39;19.26;93956.28;5048854;28;20043;-78
2024/01/04 10:49:03;;;;;;;13.32;6.68;;;;;;;29.56;19.21;93947.78;5048148;28;20063;-77
2024/01/04 10:51:32;;;;;;;12.18;7.10;;;;;;;30.14;19.04;93958.69;5049125;28;20749;-77
2024/01/04 10:54:01;;;;;;;11.32;7.05;;;;;;;30.57;18.61;93942.09;5048187;28;20025;-76
2024/01/04 10:56:30;;;;;;;13.95;7.25;;;;;;;30.71;18.18;93937.53;5048527;28;20021;-75
2024/01/04 10:58:57;;;;;;;11.48;6.72;;;;;;;30.85;17.96;93937.81;5048632;28;20064;-77
2024/01/04 11:01:22;;;;;;;14.20;8.68;;;;;;;31.25;17.48;93931.56;5047781;28;20033;-77
2024/01/04 11:03:48;;;;;;;10.93;6.60;;;;;;;31.36;17.16;93942.31;5048560;28;20025;-77
2024/01/04 11:06:15;;;;;;;11.73;6.88;;;;;;;31.99;17.08;93931.88;5046123;28;20052;-76
2024/01/04 11:08:40;;;;;;;12.57;7.13;;;;;;;32.92;16.49;93908.34;5048654;28;20423;-77
2024/01/04 11:11:07;;;;;;;11.35;6.40;;;;;;;34.22;14.99;93910.97;5047781;28;20024;-75
2024/01/04 11:13:32;;;;;;;12.25;5.72;;;;;;;35.22;14.24;93902.66;5046703;28;20029;-76
2024/01/04 11:15:59;;;;;;;8.13;5.10;;;;;;;35.76;13.65;93912.09;5047903;28;20098;-78
2024/01/04 11:18:49;;;;;;;9.13;5.15;;;;;;;36.34;13.36;93893.78;5047845;28;20037;-81
2024/01/04 11:21:27;;;;;;;6.72;4.38;;;;;;;33.72;14.76;93885.75;5046945;28;20032;-76
2024/01/04 11:24:03;;;;;;;9.80;4.80;;;;;;;32.99;15.65;93899.63;5047082;28;20033;-76
2024/01/04 11:26:42;;;;;;;3.67;2.50;;;;;;;28.63;18.44;93894.94;5047706;28;20067;-75